sensor_id;sensor_type;location;lat;lon;timestamp;temperature;humidity
43884;DHT22;29544;52.018;5.810;2023-07-20T00:01:50;23.10;61.80
43884;DHT22;29544;52.018;5.810;2023-07-20T00:04:15;23.10;61.80
43884;DHT22;29544;52.018;5.810;2023-07-20T00:06:41;23.10;61.80
43884;DHT22;29544;52.018;5.810;2023-07-20T00:09:07;23.00;61.80
43884;DHT22;29544;52.018;5.810;2023-07-20T00:11:35;23.00;61.70
43884;DHT22;29544;52.018;5.810;2023-07-20T00:14:00;23.10;61.90
43884;DHT22;29544;52.018;5.810;2023-07-20T00:16:26;23.00;62.40
43884;DHT22;29544;52.018;5.810;2023-07-20T00:18:51;23.00;61.80
43884;DHT22;29544;52.018;5.810;2023-07-20T00:21:17;23.00;61.80
43884;DHT22;29544;52.018;5.810;2023-07-20T00:23:42;23.00;61.80
43884;DHT22;29544;52.018;5.810;2023-07-20T00:26:07;23.00;61.80
43884;DHT22;29544;52.018;5.810;2023-07-20T00:28:33;23.00;61.90
43884;DHT22;29544;52.018;5.810;2023-07-20T00:30:59;23.00;61.90
43884;DHT22;29544;52.018;5.810;2023-07-20T00:33:25;22.90;61.80
43884;DHT22;29544;52.018;5.810;2023-07-20T00:35:50;22.90;61.80
43884;DHT22;29544;52.018;5.810;2023-07-20T00:38:16;22.90;61.90
43884;DHT22;29544;52.018;5.810;2023-07-20T00:40:41;22.90;61.90
43884;DHT22;29544;52.018;5.810;2023-07-20T00:43:08;22.90;61.90
43884;DHT22;29544;52.018;5.810;2023-07-20T00:45:34;22.90;61.90
43884;DHT22;29544;52.018;5.810;2023-07-20T00:48:00;22.90;61.90
43884;DHT22;29544;52.018;5.810;2023-07-20T00:50:26;22.90;62.00
43884;DHT22;29544;52.018;5.810;2023-07-20T00:52:53;22.90;62.00
43884;DHT22;29544;52.018;5.810;2023-07-20T00:55:19;22.80;61.90
43884;DHT22;29544;52.018;5.810;2023-07-20T00:57:44;22.90;62.00
43884;DHT22;29544;52.018;5.810;2023-07-20T01:00:10;22.80;61.90
43884;DHT22;29544;52.018;5.810;2023-07-20T01:02:35;22.80;61.90
43884;DHT22;29544;52.018;5.810;2023-07-20T01:05:02;22.80;62.00
43884;DHT22;29544;52.018;5.810;2023-07-20T01:07:36;22.80;62.00
43884;DHT22;29544;52.018;5.810;2023-07-20T01:12:30;22.80;62.00
43884;DHT22;29544;52.018;5.810;2023-07-20T01:14:58;22.70;62.00
43884;DHT22;29544;52.018;5.810;2023-07-20T01:17:23;22.70;62.00
43884;DHT22;29544;52.018;5.810;2023-07-20T01:19:49;22.70;62.10
43884;DHT22;29544;52.018;5.810;2023-07-20T01:25:11;22.70;62.10
43884;DHT22;29544;52.018;5.810;2023-07-20T01:27:44;22.70;62.20
43884;DHT22;29544;52.018;5.810;2023-07-20T01:32:51;22.70;62.20
43884;DHT22;29544;52.018;5.810;2023-07-20T01:35:19;22.70;62.20
43884;DHT22;29544;52.018;5.810;2023-07-20T01:37:46;22.70;62.20
43884;DHT22;29544;52.018;5.810;2023-07-20T01:40:13;22.70;62.20
43884;DHT22;29544;52.018;5.810;2023-07-20T01:42:42;22.70;62.20
43884;DHT22;29544;52.018;5.810;2023-07-20T01:45:08;22.60;62.20
43884;DHT22;29544;52.018;5.810;2023-07-20T01:47:33;22.60;62.20
43884;DHT22;29544;52.018;5.810;2023-07-20T01:49:59;22.60;62.20
43884;DHT22;29544;52.018;5.810;2023-07-20T01:52:25;22.60;62.30
43884;DHT22;29544;52.018;5.810;2023-07-20T01:54:50;22.60;62.20
43884;DHT22;29544;52.018;5.810;2023-07-20T01:57:16;22.60;62.30
43884;DHT22;29544;52.018;5.810;2023-07-20T01:59:41;22.60;62.30
43884;DHT22;29544;52.018;5.810;2023-07-20T02:02:07;22.60;62.30
43884;DHT22;29544;52.018;5.810;2023-07-20T02:04:32;22.50;62.30
43884;DHT22;29544;52.018;5.810;2023-07-20T02:06:58;22.60;62.40
43884;DHT22;29544;52.018;5.810;2023-07-20T02:09:23;22.60;62.40
43884;DHT22;29544;52.018;5.810;2023-07-20T02:11:48;22.50;62.30
43884;DHT22;29544;52.018;5.810;2023-07-20T02:14:15;22.60;62.40
43884;DHT22;29544;52.018;5.810;2023-07-20T02:16:40;22.60;62.40
43884;DHT22;29544;52.018;5.810;2023-07-20T02:19:06;22.50;62.30
43884;DHT22;29544;52.018;5.810;2023-07-20T02:21:32;22.60;62.40
43884;DHT22;29544;52.018;5.810;2023-07-20T02:23:58;22.50;62.40
43884;DHT22;29544;52.018;5.810;2023-07-20T02:26:23;22.50;62.40
43884;DHT22;29544;52.018;5.810;2023-07-20T02:28:49;22.50;62.40
43884;DHT22;29544;52.018;5.810;2023-07-20T02:31:14;22.50;62.40
43884;DHT22;29544;52.018;5.810;2023-07-20T02:33:39;22.50;62.40
43884;DHT22;29544;52.018;5.810;2023-07-20T02:36:05;22.50;62.40
43884;DHT22;29544;52.018;5.810;2023-07-20T02:38:30;22.50;62.40
43884;DHT22;29544;52.018;5.810;2023-07-20T02:40:56;22.50;62.40
43884;DHT22;29544;52.018;5.810;2023-07-20T02:43:21;22.40;62.40
43884;DHT22;29544;52.018;5.810;2023-07-20T02:45:47;22.40;62.30
43884;DHT22;29544;52.018;5.810;2023-07-20T02:48:12;22.40;62.30
43884;DHT22;29544;52.018;5.810;2023-07-20T02:50:37;22.40;62.30
43884;DHT22;29544;52.018;5.810;2023-07-20T02:53:03;22.40;62.40
43884;DHT22;29544;52.018;5.810;2023-07-20T02:55:28;22.40;62.40
43884;DHT22;29544;52.018;5.810;2023-07-20T02:57:54;22.40;62.40
43884;DHT22;29544;52.018;5.810;2023-07-20T03:00:19;22.40;62.40
43884;DHT22;29544;52.018;5.810;2023-07-20T03:02:45;22.40;62.40
43884;DHT22;29544;52.018;5.810;2023-07-20T03:05:15;22.40;62.30
43884;DHT22;29544;52.018;5.810;2023-07-20T03:07:42;22.40;62.30
43884;DHT22;29544;52.018;5.810;2023-07-20T03:10:08;22.40;62.30
43884;DHT22;29544;52.018;5.810;2023-07-20T03:12:35;22.30;62.30
43884;DHT22;29544;52.018;5.810;2023-07-20T03:15:01;22.30;62.30
43884;DHT22;29544;52.018;5.810;2023-07-20T03:17:26;22.30;62.30
43884;DHT22;29544;52.018;5.810;2023-07-20T03:19:51;22.30;62.20
43884;DHT22;29544;52.018;5.810;2023-07-20T03:22:17;22.30;62.20
43884;DHT22;29544;52.018;5.810;2023-07-20T03:24:43;22.30;62.20
43884;DHT22;29544;52.018;5.810;2023-07-20T03:27:09;22.30;62.20
43884;DHT22;29544;52.018;5.810;2023-07-20T03:29:34;22.30;62.20
43884;DHT22;29544;52.018;5.810;2023-07-20T03:32:00;22.30;62.10
43884;DHT22;29544;52.018;5.810;2023-07-20T03:34:25;22.30;62.10
43884;DHT22;29544;52.018;5.810;2023-07-20T03:36:51;22.20;62.00
43884;DHT22;29544;52.018;5.810;2023-07-20T03:39:16;22.20;62.00
43884;DHT22;29544;52.018;5.810;2023-07-20T03:41:41;22.20;62.00
43884;DHT22;29544;52.018;5.810;2023-07-20T03:44:08;22.20;62.00
43884;DHT22;29544;52.018;5.810;2023-07-20T03:46:33;22.20;62.00
43884;DHT22;29544;52.018;5.810;2023-07-20T03:48:59;22.20;61.90
43884;DHT22;29544;52.018;5.810;2023-07-20T03:51:25;22.10;61.90
43884;DHT22;29544;52.018;5.810;2023-07-20T03:53:50;22.20;61.90
43884;DHT22;29544;52.018;5.810;2023-07-20T03:56:16;22.20;61.90
43884;DHT22;29544;52.018;5.810;2023-07-20T03:58:41;22.10;61.80
43884;DHT22;29544;52.018;5.810;2023-07-20T04:01:07;22.10;61.80
43884;DHT22;29544;52.018;5.810;2023-07-20T04:03:33;22.10;61.80
43884;DHT22;29544;52.018;5.810;2023-07-20T04:05:58;22.10;61.70
43884;DHT22;29544;52.018;5.810;2023-07-20T04:08:24;22.10;61.80
43884;DHT22;29544;52.018;5.810;2023-07-20T04:10:49;22.10;61.70
43884;DHT22;29544;52.018;5.810;2023-07-20T04:13:15;22.10;61.70
43884;DHT22;29544;52.018;5.810;2023-07-20T04:15:41;22.10;61.60
43884;DHT22;29544;52.018;5.810;2023-07-20T04:18:07;22.10;61.60
43884;DHT22;29544;52.018;5.810;2023-07-20T04:20:32;22.00;61.60
43884;DHT22;29544;52.018;5.810;2023-07-20T04:22:58;22.10;61.60
43884;DHT22;29544;52.018;5.810;2023-07-20T04:25:23;22.00;61.50
43884;DHT22;29544;52.018;5.810;2023-07-20T04:27:49;22.00;61.50
43884;DHT22;29544;52.018;5.810;2023-07-20T04:30:16;22.00;61.40
43884;DHT22;29544;52.018;5.810;2023-07-20T04:32:44;21.90;61.40
43884;DHT22;29544;52.018;5.810;2023-07-20T04:35:17;22.00;61.40
43884;DHT22;29544;52.018;5.810;2023-07-20T04:37:42;22.00;61.40
43884;DHT22;29544;52.018;5.810;2023-07-20T04:40:12;22.00;61.40
43884;DHT22;29544;52.018;5.810;2023-07-20T04:42:37;21.90;61.30
43884;DHT22;29544;52.018;5.810;2023-07-20T04:45:03;22.00;61.40
43884;DHT22;29544;52.018;5.810;2023-07-20T04:47:28;21.90;61.30
43884;DHT22;29544;52.018;5.810;2023-07-20T04:49:54;21.90;61.30
43884;DHT22;29544;52.018;5.810;2023-07-20T04:52:19;21.90;61.40
43884;DHT22;29544;52.018;5.810;2023-07-20T04:54:45;21.90;61.40
43884;DHT22;29544;52.018;5.810;2023-07-20T04:57:11;21.90;61.40
43884;DHT22;29544;52.018;5.810;2023-07-20T04:59:37;21.90;61.40
43884;DHT22;29544;52.018;5.810;2023-07-20T05:02:02;21.90;61.40
43884;DHT22;29544;52.018;5.810;2023-07-20T05:04:28;21.90;61.50
43884;DHT22;29544;52.018;5.810;2023-07-20T05:06:53;21.90;61.50
43884;DHT22;29544;52.018;5.810;2023-07-20T05:09:18;21.90;61.60
43884;DHT22;29544;52.018;5.810;2023-07-20T05:11:44;21.80;61.60
43884;DHT22;29544;52.018;5.810;2023-07-20T05:14:10;21.80;61.60
43884;DHT22;29544;52.018;5.810;2023-07-20T05:16:36;21.90;61.70
43884;DHT22;29544;52.018;5.810;2023-07-20T05:19:01;21.80;61.70
43884;DHT22;29544;52.018;5.810;2023-07-20T05:21:27;21.80;61.70
43884;DHT22;29544;52.018;5.810;2023-07-20T05:23:53;21.80;61.80
43884;DHT22;29544;52.018;5.810;2023-07-20T05:26:18;21.80;61.80
43884;DHT22;29544;52.018;5.810;2023-07-20T05:28:44;21.80;61.90
43884;DHT22;29544;52.018;5.810;2023-07-20T05:31:09;21.80;61.90
43884;DHT22;29544;52.018;5.810;2023-07-20T05:33:35;21.80;61.90
43884;DHT22;29544;52.018;5.810;2023-07-20T05:36:00;21.80;62.00
43884;DHT22;29544;52.018;5.810;2023-07-20T05:38:25;21.80;61.90
43884;DHT22;29544;52.018;5.810;2023-07-20T05:40:51;21.80;62.00
43884;DHT22;29544;52.018;5.810;2023-07-20T05:43:17;21.80;62.00
43884;DHT22;29544;52.018;5.810;2023-07-20T05:45:42;21.80;62.10
43884;DHT22;29544;52.018;5.810;2023-07-20T05:48:08;21.80;62.10
43884;DHT22;29544;52.018;5.810;2023-07-20T05:50:35;21.80;62.10
43884;DHT22;29544;52.018;5.810;2023-07-20T05:53:00;21.80;62.20
43884;DHT22;29544;52.018;5.810;2023-07-20T05:55:25;21.80;62.20
43884;DHT22;29544;52.018;5.810;2023-07-20T05:57:51;21.80;62.20
43884;DHT22;29544;52.018;5.810;2023-07-20T06:00:16;21.80;62.20
43884;DHT22;29544;52.018;5.810;2023-07-20T06:02:44;21.80;62.20
43884;DHT22;29544;52.018;5.810;2023-07-20T06:05:09;21.80;62.30
43884;DHT22;29544;52.018;5.810;2023-07-20T06:07:38;21.80;62.30
43884;DHT22;29544;52.018;5.810;2023-07-20T06:10:04;21.70;62.30
43884;DHT22;29544;52.018;5.810;2023-07-20T06:12:31;21.70;62.30
43884;DHT22;29544;52.018;5.810;2023-07-20T06:14:56;21.80;62.40
43884;DHT22;29544;52.018;5.810;2023-07-20T06:17:21;21.70;62.40
43884;DHT22;29544;52.018;5.810;2023-07-20T06:19:47;21.70;62.40
43884;DHT22;29544;52.018;5.810;2023-07-20T06:22:12;21.80;62.40
43884;DHT22;29544;52.018;5.810;2023-07-20T06:24:38;21.70;62.40
43884;DHT22;29544;52.018;5.810;2023-07-20T06:27:03;21.80;62.50
43884;DHT22;29544;52.018;5.810;2023-07-20T06:29:31;21.80;62.50
43884;DHT22;29544;52.018;5.810;2023-07-20T06:31:56;21.70;62.50
43884;DHT22;29544;52.018;5.810;2023-07-20T06:34:21;21.80;62.50
43884;DHT22;29544;52.018;5.810;2023-07-20T06:36:47;21.70;62.50
43884;DHT22;29544;52.018;5.810;2023-07-20T06:39:12;21.80;62.60
43884;DHT22;29544;52.018;5.810;2023-07-20T06:41:39;21.80;62.60
43884;DHT22;29544;52.018;5.810;2023-07-20T06:44:04;21.70;62.60
43884;DHT22;29544;52.018;5.810;2023-07-20T06:46:30;21.70;62.50
43884;DHT22;29544;52.018;5.810;2023-07-20T06:48:55;21.70;62.60
43884;DHT22;29544;52.018;5.810;2023-07-20T06:51:22;21.80;62.70
43884;DHT22;29544;52.018;5.810;2023-07-20T06:53:47;21.70;62.60
43884;DHT22;29544;52.018;5.810;2023-07-20T06:56:13;21.70;62.70
43884;DHT22;29544;52.018;5.810;2023-07-20T06:58:39;21.70;62.70
43884;DHT22;29544;52.018;5.810;2023-07-20T07:01:05;21.70;62.70
43884;DHT22;29544;52.018;5.810;2023-07-20T07:03:32;21.70;62.80
43884;DHT22;29544;52.018;5.810;2023-07-20T07:05:57;21.80;62.90
43884;DHT22;29544;52.018;5.810;2023-07-20T07:08:22;21.70;62.90
43884;DHT22;29544;52.018;5.810;2023-07-20T07:10:48;21.80;63.00
43884;DHT22;29544;52.018;5.810;2023-07-20T07:13:13;21.70;63.00
43884;DHT22;29544;52.018;5.810;2023-07-20T07:15:39;21.80;63.20
43884;DHT22;29544;52.018;5.810;2023-07-20T07:18:04;21.80;63.20
43884;DHT22;29544;52.018;5.810;2023-07-20T07:20:30;21.80;63.30
43884;DHT22;29544;52.018;5.810;2023-07-20T07:22:55;21.80;63.30
43884;DHT22;29544;52.018;5.810;2023-07-20T07:25:22;21.80;63.30
43884;DHT22;29544;52.018;5.810;2023-07-20T07:27:47;21.80;63.30
43884;DHT22;29544;52.018;5.810;2023-07-20T07:30:13;21.80;63.30
43884;DHT22;29544;52.018;5.810;2023-07-20T07:32:38;21.80;63.40
43884;DHT22;29544;52.018;5.810;2023-07-20T07:35:04;21.80;63.40
43884;DHT22;29544;52.018;5.810;2023-07-20T07:37:30;21.80;63.40
43884;DHT22;29544;52.018;5.810;2023-07-20T07:39:55;21.90;63.40
43884;DHT22;29544;52.018;5.810;2023-07-20T07:42:21;21.90;63.40
43884;DHT22;29544;52.018;5.810;2023-07-20T07:44:46;21.90;63.40
43884;DHT22;29544;52.018;5.810;2023-07-20T07:47:11;21.90;63.40
43884;DHT22;29544;52.018;5.810;2023-07-20T07:49:37;21.90;63.30
43884;DHT22;29544;52.018;5.810;2023-07-20T07:52:03;21.90;63.40
43884;DHT22;29544;52.018;5.810;2023-07-20T07:54:28;21.90;63.30
43884;DHT22;29544;52.018;5.810;2023-07-20T07:56:54;21.90;63.30
43884;DHT22;29544;52.018;5.810;2023-07-20T07:59:20;21.90;63.20
43884;DHT22;29544;52.018;5.810;2023-07-20T08:01:45;21.90;63.30
43884;DHT22;29544;52.018;5.810;2023-07-20T08:04:10;22.00;63.30
43884;DHT22;29544;52.018;5.810;2023-07-20T08:06:36;21.90;63.20
43884;DHT22;29544;52.018;5.810;2023-07-20T08:09:02;22.00;63.20
43884;DHT22;29544;52.018;5.810;2023-07-20T08:11:27;22.00;63.20
43884;DHT22;29544;52.018;5.810;2023-07-20T08:13:52;22.00;63.10
43884;DHT22;29544;52.018;5.810;2023-07-20T08:16:18;22.00;63.10
43884;DHT22;29544;52.018;5.810;2023-07-20T08:18:43;22.00;63.10
43884;DHT22;29544;52.018;5.810;2023-07-20T08:21:10;22.00;63.00
43884;DHT22;29544;52.018;5.810;2023-07-20T08:23:36;22.00;62.90
43884;DHT22;29544;52.018;5.810;2023-07-20T08:26:01;22.00;62.90
43884;DHT22;29544;52.018;5.810;2023-07-20T08:28:27;22.00;62.80
43884;DHT22;29544;52.018;5.810;2023-07-20T08:30:54;22.10;62.80
43884;DHT22;29544;52.018;5.810;2023-07-20T08:33:19;22.10;62.80
43884;DHT22;29544;52.018;5.810;2023-07-20T08:35:45;22.00;62.70
43884;DHT22;29544;52.018;5.810;2023-07-20T08:38:11;22.00;62.70
43884;DHT22;29544;52.018;5.810;2023-07-20T08:40:40;22.10;62.60
43884;DHT22;29544;52.018;5.810;2023-07-20T08:43:05;22.10;62.60
43884;DHT22;29544;52.018;5.810;2023-07-20T08:45:32;22.10;62.50
43884;DHT22;29544;52.018;5.810;2023-07-20T08:47:58;22.10;62.50
43884;DHT22;29544;52.018;5.810;2023-07-20T08:50:25;22.10;62.40
43884;DHT22;29544;52.018;5.810;2023-07-20T08:52:50;22.00;62.30
43884;DHT22;29544;52.018;5.810;2023-07-20T08:55:17;22.10;62.30
43884;DHT22;29544;52.018;5.810;2023-07-20T08:57:43;22.10;62.30
43884;DHT22;29544;52.018;5.810;2023-07-20T09:00:11;22.00;62.30
43884;DHT22;29544;52.018;5.810;2023-07-20T09:02:38;22.10;62.30
43884;DHT22;29544;52.018;5.810;2023-07-20T09:05:05;22.10;62.30
43884;DHT22;29544;52.018;5.810;2023-07-20T09:07:32;22.10;62.10
43884;DHT22;29544;52.018;5.810;2023-07-20T09:09:58;22.10;61.90
43884;DHT22;29544;52.018;5.810;2023-07-20T09:12:23;22.10;61.70
43884;DHT22;29544;52.018;5.810;2023-07-20T09:14:49;22.00;61.50
43884;DHT22;29544;52.018;5.810;2023-07-20T09:17:14;22.10;61.50
43884;DHT22;29544;52.018;5.810;2023-07-20T09:19:47;22.10;61.00
43884;DHT22;29544;52.018;5.810;2023-07-20T09:22:13;22.10;60.60
43884;DHT22;29544;52.018;5.810;2023-07-20T09:24:38;22.10;60.50
43884;DHT22;29544;52.018;5.810;2023-07-20T09:27:04;22.10;60.30
43884;DHT22;29544;52.018;5.810;2023-07-20T09:29:29;22.10;60.10
43884;DHT22;29544;52.018;5.810;2023-07-20T09:31:59;22.10;60.00
43884;DHT22;29544;52.018;5.810;2023-07-20T09:34:25;22.10;60.10
43884;DHT22;29544;52.018;5.810;2023-07-20T09:36:51;22.10;60.10
43884;DHT22;29544;52.018;5.810;2023-07-20T09:39:17;22.10;60.10
43884;DHT22;29544;52.018;5.810;2023-07-20T09:41:43;22.10;60.00
43884;DHT22;29544;52.018;5.810;2023-07-20T09:44:09;22.20;60.00
43884;DHT22;29544;52.018;5.810;2023-07-20T09:46:42;22.10;59.90
43884;DHT22;29544;52.018;5.810;2023-07-20T09:49:08;22.10;59.80
43884;DHT22;29544;52.018;5.810;2023-07-20T09:51:34;22.10;59.70
43884;DHT22;29544;52.018;5.810;2023-07-20T09:53:59;22.10;59.80
43884;DHT22;29544;52.018;5.810;2023-07-20T09:56:25;22.10;59.70
43884;DHT22;29544;52.018;5.810;2023-07-20T09:58:51;22.10;59.60
43884;DHT22;29544;52.018;5.810;2023-07-20T10:01:20;22.10;59.50
43884;DHT22;29544;52.018;5.810;2023-07-20T10:03:46;22.10;59.40
43884;DHT22;29544;52.018;5.810;2023-07-20T10:06:13;22.10;59.40
43884;DHT22;29544;52.018;5.810;2023-07-20T10:08:40;22.10;59.30
43884;DHT22;29544;52.018;5.810;2023-07-20T10:11:06;22.10;59.20
43884;DHT22;29544;52.018;5.810;2023-07-20T10:13:32;22.10;59.00
43884;DHT22;29544;52.018;5.810;2023-07-20T10:16:05;22.10;58.90
43884;DHT22;29544;52.018;5.810;2023-07-20T10:18:51;22.10;58.80
43884;DHT22;29544;52.018;5.810;2023-07-20T10:21:17;22.10;58.80
43884;DHT22;29544;52.018;5.810;2023-07-20T10:23:45;22.10;58.80
43884;DHT22;29544;52.018;5.810;2023-07-20T10:26:10;22.10;58.80
43884;DHT22;29544;52.018;5.810;2023-07-20T10:28:36;22.10;58.70
43884;DHT22;29544;52.018;5.810;2023-07-20T10:31:02;22.10;58.60
43884;DHT22;29544;52.018;5.810;2023-07-20T10:33:28;22.10;58.60
43884;DHT22;29544;52.018;5.810;2023-07-20T10:35:54;22.10;58.50
43884;DHT22;29544;52.018;5.810;2023-07-20T10:38:20;22.10;58.60
43884;DHT22;29544;52.018;5.810;2023-07-20T10:41:03;22.20;58.60
43884;DHT22;29544;52.018;5.810;2023-07-20T10:43:28;22.20;58.50
43884;DHT22;29544;52.018;5.810;2023-07-20T10:45:54;22.10;58.40
43884;DHT22;29544;52.018;5.810;2023-07-20T10:48:23;22.10;58.50
43884;DHT22;29544;52.018;5.810;2023-07-20T10:53:33;22.20;58.60
43884;DHT22;29544;52.018;5.810;2023-07-20T10:56:08;22.20;58.20
43884;DHT22;29544;52.018;5.810;2023-07-20T10:58:34;22.20;58.40
43884;DHT22;29544;52.018;5.810;2023-07-20T11:01:00;22.20;58.90
43884;DHT22;29544;52.018;5.810;2023-07-20T11:03:26;22.20;58.40
43884;DHT22;29544;52.018;5.810;2023-07-20T11:05:52;22.30;58.60
43884;DHT22;29544;52.018;5.810;2023-07-20T11:08:37;22.30;58.70
43884;DHT22;29544;52.018;5.810;2023-07-20T11:14:02;22.30;58.50
43884;DHT22;29544;52.018;5.810;2023-07-20T11:16:32;22.30;58.40
43884;DHT22;29544;52.018;5.810;2023-07-20T11:18:58;22.30;58.20
43884;DHT22;29544;52.018;5.810;2023-07-20T11:21:24;22.30;57.90
43884;DHT22;29544;52.018;5.810;2023-07-20T11:23:50;22.30;58.10
43884;DHT22;29544;52.018;5.810;2023-07-20T11:26:17;22.30;58.20
43884;DHT22;29544;52.018;5.810;2023-07-20T11:28:50;22.30;58.10
43884;DHT22;29544;52.018;5.810;2023-07-20T11:31:19;22.40;58.00
43884;DHT22;29544;52.018;5.810;2023-07-20T11:33:45;22.40;58.10
43884;DHT22;29544;52.018;5.810;2023-07-20T11:36:11;22.40;57.90
43884;DHT22;29544;52.018;5.810;2023-07-20T11:38:38;22.40;57.90
43884;DHT22;29544;52.018;5.810;2023-07-20T11:41:03;22.50;57.80
43884;DHT22;29544;52.018;5.810;2023-07-20T11:43:31;22.50;57.70
43884;DHT22;29544;52.018;5.810;2023-07-20T11:45:57;22.50;57.40
43884;DHT22;29544;52.018;5.810;2023-07-20T11:48:22;22.50;58.10
43884;DHT22;29544;52.018;5.810;2023-07-20T11:50:48;22.60;57.40
43884;DHT22;29544;52.018;5.810;2023-07-20T11:53:14;22.60;57.70
43884;DHT22;29544;52.018;5.810;2023-07-20T11:55:40;22.60;57.30
43884;DHT22;29544;52.018;5.810;2023-07-20T11:58:06;22.60;57.60
43884;DHT22;29544;52.018;5.810;2023-07-20T12:00:33;22.60;57.60
43884;DHT22;29544;52.018;5.810;2023-07-20T12:02:59;22.70;57.70
43884;DHT22;29544;52.018;5.810;2023-07-20T12:05:25;22.70;57.20
43884;DHT22;29544;52.018;5.810;2023-07-20T12:07:51;22.60;56.80
43884;DHT22;29544;52.018;5.810;2023-07-20T12:10:23;22.70;57.20
43884;DHT22;29544;52.018;5.810;2023-07-20T12:12:49;22.80;57.50
43884;DHT22;29544;52.018;5.810;2023-07-20T12:15:24;22.80;57.50
43884;DHT22;29544;52.018;5.810;2023-07-20T12:17:52;22.80;57.30
43884;DHT22;29544;52.018;5.810;2023-07-20T12:22:52;22.90;56.60
43884;DHT22;29544;52.018;5.810;2023-07-20T12:25:17;22.90;57.10
43884;DHT22;29544;52.018;5.810;2023-07-20T12:27:47;22.90;57.30
43884;DHT22;29544;52.018;5.810;2023-07-20T12:30:13;22.90;57.50
43884;DHT22;29544;52.018;5.810;2023-07-20T12:32:42;22.90;57.60
43884;DHT22;29544;52.018;5.810;2023-07-20T12:35:07;22.90;57.30
43884;DHT22;29544;52.018;5.810;2023-07-20T12:37:33;22.90;56.90
43884;DHT22;29544;52.018;5.810;2023-07-20T12:39:58;22.90;56.50
43884;DHT22;29544;52.018;5.810;2023-07-20T12:42:24;22.80;55.70
43884;DHT22;29544;52.018;5.810;2023-07-20T12:44:49;22.80;56.00
43884;DHT22;29544;52.018;5.810;2023-07-20T12:47:16;22.90;56.10
43884;DHT22;29544;52.018;5.810;2023-07-20T12:49:42;22.90;55.90
43884;DHT22;29544;52.018;5.810;2023-07-20T12:52:10;22.80;56.00
43884;DHT22;29544;52.018;5.810;2023-07-20T12:54:36;22.80;55.50
43884;DHT22;29544;52.018;5.810;2023-07-20T12:57:01;22.80;55.60
43884;DHT22;29544;52.018;5.810;2023-07-20T12:59:28;22.80;55.70
43884;DHT22;29544;52.018;5.810;2023-07-20T13:01:54;22.90;56.20
43884;DHT22;29544;52.018;5.810;2023-07-20T13:04:19;22.90;56.20
43884;DHT22;29544;52.018;5.810;2023-07-20T13:06:44;23.00;55.70
43884;DHT22;29544;52.018;5.810;2023-07-20T13:09:10;23.00;55.10
43884;DHT22;29544;52.018;5.810;2023-07-20T13:11:35;22.90;55.00
43884;DHT22;29544;52.018;5.810;2023-07-20T13:14:01;22.90;55.00
43884;DHT22;29544;52.018;5.810;2023-07-20T13:16:27;22.90;54.90
43884;DHT22;29544;52.018;5.810;2023-07-20T13:18:52;23.00;55.30
43884;DHT22;29544;52.018;5.810;2023-07-20T13:21:18;23.00;55.50
43884;DHT22;29544;52.018;5.810;2023-07-20T13:23:47;23.10;55.80
43884;DHT22;29544;52.018;5.810;2023-07-20T13:26:13;23.10;56.10
43884;DHT22;29544;52.018;5.810;2023-07-20T13:28:39;23.20;56.40
43884;DHT22;29544;52.018;5.810;2023-07-20T13:31:04;23.20;56.50
43884;DHT22;29544;52.018;5.810;2023-07-20T13:33:30;23.20;56.40
43884;DHT22;29544;52.018;5.810;2023-07-20T13:35:55;23.20;56.40
43884;DHT22;29544;52.018;5.810;2023-07-20T13:38:21;23.30;56.50
43884;DHT22;29544;52.018;5.810;2023-07-20T13:40:47;23.40;56.50
43884;DHT22;29544;52.018;5.810;2023-07-20T13:43:13;23.40;56.50
43884;DHT22;29544;52.018;5.810;2023-07-20T13:45:38;23.40;56.50
43884;DHT22;29544;52.018;5.810;2023-07-20T13:48:04;23.40;56.20
43884;DHT22;29544;52.018;5.810;2023-07-20T13:50:29;23.40;55.80
43884;DHT22;29544;52.018;5.810;2023-07-20T13:52:54;23.40;55.60
43884;DHT22;29544;52.018;5.810;2023-07-20T13:55:20;23.40;55.50
43884;DHT22;29544;52.018;5.810;2023-07-20T13:57:45;23.30;55.70
43884;DHT22;29544;52.018;5.810;2023-07-20T14:00:11;23.30;55.70
43884;DHT22;29544;52.018;5.810;2023-07-20T14:02:37;23.40;55.30
43884;DHT22;29544;52.018;5.810;2023-07-20T14:05:02;23.30;55.40
43884;DHT22;29544;52.018;5.810;2023-07-20T14:07:28;23.40;55.30
43884;DHT22;29544;52.018;5.810;2023-07-20T14:09:53;23.30;54.40
43884;DHT22;29544;52.018;5.810;2023-07-20T14:12:19;23.30;54.20
43884;DHT22;29544;52.018;5.810;2023-07-20T14:14:45;23.30;54.30
43884;DHT22;29544;52.018;5.810;2023-07-20T14:17:10;23.30;54.60
43884;DHT22;29544;52.018;5.810;2023-07-20T14:19:37;23.30;54.60
43884;DHT22;29544;52.018;5.810;2023-07-20T14:22:02;23.30;54.90
43884;DHT22;29544;52.018;5.810;2023-07-20T14:24:29;23.40;54.80
43884;DHT22;29544;52.018;5.810;2023-07-20T14:26:54;23.40;55.20
43884;DHT22;29544;52.018;5.810;2023-07-20T14:29:20;23.40;55.40
43884;DHT22;29544;52.018;5.810;2023-07-20T14:31:46;23.40;55.50
43884;DHT22;29544;52.018;5.810;2023-07-20T14:34:18;23.50;55.90
43884;DHT22;29544;52.018;5.810;2023-07-20T14:36:44;23.50;55.90
43884;DHT22;29544;52.018;5.810;2023-07-20T14:39:10;23.50;55.80
43884;DHT22;29544;52.018;5.810;2023-07-20T14:41:35;23.50;56.00
43884;DHT22;29544;52.018;5.810;2023-07-20T14:44:00;23.50;56.00
43884;DHT22;29544;52.018;5.810;2023-07-20T14:46:26;23.60;56.10
43884;DHT22;29544;52.018;5.810;2023-07-20T14:48:51;23.60;55.50
43884;DHT22;29544;52.018;5.810;2023-07-20T14:51:17;23.60;55.10
43884;DHT22;29544;52.018;5.810;2023-07-20T14:53:42;23.60;55.60
43884;DHT22;29544;52.018;5.810;2023-07-20T14:56:08;23.60;55.70
43884;DHT22;29544;52.018;5.810;2023-07-20T14:58:34;23.70;55.50
43884;DHT22;29544;52.018;5.810;2023-07-20T15:00:59;23.70;55.70
43884;DHT22;29544;52.018;5.810;2023-07-20T15:03:25;23.70;55.80
43884;DHT22;29544;52.018;5.810;2023-07-20T15:05:50;23.70;55.80
43884;DHT22;29544;52.018;5.810;2023-07-20T15:08:17;23.70;55.70
43884;DHT22;29544;52.018;5.810;2023-07-20T15:10:43;23.70;55.10
43884;DHT22;29544;52.018;5.810;2023-07-20T15:13:11;23.70;55.00
43884;DHT22;29544;52.018;5.810;2023-07-20T15:15:36;23.70;54.80
43884;DHT22;29544;52.018;5.810;2023-07-20T15:18:02;23.70;54.70
43884;DHT22;29544;52.018;5.810;2023-07-20T15:20:27;23.70;54.50
43884;DHT22;29544;52.018;5.810;2023-07-20T15:22:53;23.70;55.00
43884;DHT22;29544;52.018;5.810;2023-07-20T15:25:18;23.70;54.90
43884;DHT22;29544;52.018;5.810;2023-07-20T15:27:44;23.70;54.90
43884;DHT22;29544;52.018;5.810;2023-07-20T15:30:09;23.80;55.10
43884;DHT22;29544;52.018;5.810;2023-07-20T15:32:35;23.80;55.20
43884;DHT22;29544;52.018;5.810;2023-07-20T15:35:01;23.80;55.10
43884;DHT22;29544;52.018;5.810;2023-07-20T15:37:28;23.70;54.90
43884;DHT22;29544;52.018;5.810;2023-07-20T15:39:53;23.70;54.40